sensor_id;sensor_type;location;lat;lon;timestamp;temperature;humidity
24412;DHT22;12544;46.760;15.942;2024-01-30T00:00:35;-0.80;99.90
24412;DHT22;12544;46.760;15.942;2024-01-30T00:03:00;-0.90;99.90
24412;DHT22;12544;46.760;15.942;2024-01-30T00:05:26;-0.90;99.90
24412;DHT22;12544;46.760;15.942;2024-01-30T00:07:51;-0.90;99.90
24412;DHT22;12544;46.760;15.942;2024-01-30T00:10:17;-1.00;99.90
24412;DHT22;12544;46.760;15.942;2024-01-30T00:12:43;-0.90;99.90
24412;DHT22;12544;46.760;15.942;2024-01-30T00:15:08;-0.90;99.90
24412;DHT22;12544;46.760;15.942;2024-01-30T00:17:36;-0.90;99.90
24412;DHT22;12544;46.760;15.942;2024-01-30T00:20:03;-0.90;99.90
24412;DHT22;12544;46.760;15.942;2024-01-30T00:22:31;-0.90;99.90
24412;DHT22;12544;46.760;15.942;2024-01-30T00:24:57;-0.90;99.90
24412;DHT22;12544;46.760;15.942;2024-01-30T00:27:23;-1.00;99.90
24412;DHT22;12544;46.760;15.942;2024-01-30T00:29:48;-1.10;99.90
24412;DHT22;12544;46.760;15.942;2024-01-30T00:32:14;-1.10;99.90
24412;DHT22;12544;46.760;15.942;2024-01-30T00:34:42;-1.10;99.90
24412;DHT22;12544;46.760;15.942;2024-01-30T00:37:07;-1.10;99.90
24412;DHT22;12544;46.760;15.942;2024-01-30T00:39:33;-1.10;99.90
24412;DHT22;12544;46.760;15.942;2024-01-30T00:41:59;-1.20;99.90
24412;DHT22;12544;46.760;15.942;2024-01-30T00:44:24;-1.20;99.90
24412;DHT22;12544;46.760;15.942;2024-01-30T00:46:50;-1.20;99.90
24412;DHT22;12544;46.760;15.942;2024-01-30T00:49:16;-1.20;99.90
24412;DHT22;12544;46.760;15.942;2024-01-30T00:51:42;-1.20;99.90
24412;DHT22;12544;46.760;15.942;2024-01-30T00:54:07;-1.20;99.90
24412;DHT22;12544;46.760;15.942;2024-01-30T00:56:33;-1.20;99.90
24412;DHT22;12544;46.760;15.942;2024-01-30T00:58:59;-1.20;99.90
24412;DHT22;12544;46.760;15.942;2024-01-30T01:01:25;-1.30;99.90
24412;DHT22;12544;46.760;15.942;2024-01-30T01:03:50;-1.30;99.90
24412;DHT22;12544;46.760;15.942;2024-01-30T01:06:16;-1.30;99.90
24412;DHT22;12544;46.760;15.942;2024-01-30T01:08:41;-1.20;99.90
24412;DHT22;12544;46.760;15.942;2024-01-30T01:11:08;-1.20;99.90
24412;DHT22;12544;46.760;15.942;2024-01-30T01:13:34;-1.20;99.90
24412;DHT22;12544;46.760;15.942;2024-01-30T01:16:00;-1.30;99.90
24412;DHT22;12544;46.760;15.942;2024-01-30T01:18:26;-1.30;99.90
24412;DHT22;12544;46.760;15.942;2024-01-30T01:20:52;-1.40;99.90
24412;DHT22;12544;46.760;15.942;2024-01-30T01:23:18;-1.40;99.90
24412;DHT22;12544;46.760;15.942;2024-01-30T01:25:44;-1.50;99.90
24412;DHT22;12544;46.760;15.942;2024-01-30T01:28:09;-1.50;99.90
24412;DHT22;12544;46.760;15.942;2024-01-30T01:30:35;-1.70;99.90
24412;DHT22;12544;46.760;15.942;2024-01-30T01:33:02;-1.70;99.90
24412;DHT22;12544;46.760;15.942;2024-01-30T01:35:27;-1.70;99.90
24412;DHT22;12544;46.760;15.942;2024-01-30T01:37:54;-1.60;99.90
24412;DHT22;12544;46.760;15.942;2024-01-30T01:40:25;-1.50;99.90
24412;DHT22;12544;46.760;15.942;2024-01-30T01:42:51;-1.50;99.90
24412;DHT22;12544;46.760;15.942;2024-01-30T01:45:18;-1.40;99.90
24412;DHT22;12544;46.760;15.942;2024-01-30T01:47:44;-1.40;99.90
24412;DHT22;12544;46.760;15.942;2024-01-30T01:50:12;-1.40;99.90
24412;DHT22;12544;46.760;15.942;2024-01-30T01:52:40;-1.40;99.90
24412;DHT22;12544;46.760;15.942;2024-01-30T01:55:07;-1.30;99.90
24412;DHT22;12544;46.760;15.942;2024-01-30T01:57:33;-1.30;99.90
24412;DHT22;12544;46.760;15.942;2024-01-30T02:00:00;-1.30;99.90
24412;DHT22;12544;46.760;15.942;2024-01-30T02:02:27;-1.20;99.90
24412;DHT22;12544;46.760;15.942;2024-01-30T02:04:57;-1.20;99.90
24412;DHT22;12544;46.760;15.942;2024-01-30T02:07:22;-1.20;99.90
24412;DHT22;12544;46.760;15.942;2024-01-30T02:09:48;-1.10;99.90
24412;DHT22;12544;46.760;15.942;2024-01-30T02:12:14;-1.10;99.90
24412;DHT22;12544;46.760;15.942;2024-01-30T02:14:46;-1.10;99.90
24412;DHT22;12544;46.760;15.942;2024-01-30T02:17:12;-1.20;99.90
24412;DHT22;12544;46.760;15.942;2024-01-30T02:19:42;-1.20;99.90
24412;DHT22;12544;46.760;15.942;2024-01-30T02:22:08;-1.20;99.90
24412;DHT22;12544;46.760;15.942;2024-01-30T02:24:34;-1.20;99.90
24412;DHT22;12544;46.760;15.942;2024-01-30T02:27:00;-1.20;99.90
24412;DHT22;12544;46.760;15.942;2024-01-30T02:29:25;-1.20;99.90
24412;DHT22;12544;46.760;15.942;2024-01-30T02:31:51;-1.20;99.90
24412;DHT22;12544;46.760;15.942;2024-01-30T02:34:18;-1.10;99.90
24412;DHT22;12544;46.760;15.942;2024-01-30T02:36:44;-1.10;99.90
24412;DHT22;12544;46.760;15.942;2024-01-30T02:39:10;-1.20;99.90
24412;DHT22;12544;46.760;15.942;2024-01-30T02:41:36;-1.20;99.90
24412;DHT22;12544;46.760;15.942;2024-01-30T02:44:02;-1.20;99.90
24412;DHT22;12544;46.760;15.942;2024-01-30T02:46:28;-1.20;99.90
24412;DHT22;12544;46.760;15.942;2024-01-30T02:48:54;-1.30;99.90
24412;DHT22;12544;46.760;15.942;2024-01-30T02:51:19;-1.40;99.90
24412;DHT22;12544;46.760;15.942;2024-01-30T02:53:45;-1.40;99.90
24412;DHT22;12544;46.760;15.942;2024-01-30T02:56:10;-1.50;99.90
24412;DHT22;12544;46.760;15.942;2024-01-30T02:58:37;-1.50;99.90
24412;DHT22;12544;46.760;15.942;2024-01-30T03:01:03;-1.70;99.90
24412;DHT22;12544;46.760;15.942;2024-01-30T03:03:29;-1.90;99.90
24412;DHT22;12544;46.760;15.942;2024-01-30T03:05:54;-2.00;99.90
24412;DHT22;12544;46.760;15.942;2024-01-30T03:08:20;-2.00;99.90
24412;DHT22;12544;46.760;15.942;2024-01-30T03:10:46;-2.00;99.90
24412;DHT22;12544;46.760;15.942;2024-01-30T03:13:12;-2.10;99.90
24412;DHT22;12544;46.760;15.942;2024-01-30T03:15:37;-2.10;99.90
24412;DHT22;12544;46.760;15.942;2024-01-30T03:18:03;-2.20;99.90
24412;DHT22;12544;46.760;15.942;2024-01-30T03:20:32;-2.30;99.90
24412;DHT22;12544;46.760;15.942;2024-01-30T03:22:59;-2.40;99.90
24412;DHT22;12544;46.760;15.942;2024-01-30T03:25:25;-2.50;99.90
24412;DHT22;12544;46.760;15.942;2024-01-30T03:27:51;-2.60;99.90
24412;DHT22;12544;46.760;15.942;2024-01-30T03:30:16;-2.60;99.90
24412;DHT22;12544;46.760;15.942;2024-01-30T03:32:43;-2.60;99.90
24412;DHT22;12544;46.760;15.942;2024-01-30T03:35:09;-2.60;99.90
24412;DHT22;12544;46.760;15.942;2024-01-30T03:37:35;-2.60;99.90
24412;DHT22;12544;46.760;15.942;2024-01-30T03:40:02;-2.60;99.90
24412;DHT22;12544;46.760;15.942;2024-01-30T03:42:28;-2.50;99.90
24412;DHT22;12544;46.760;15.942;2024-01-30T03:44:53;-2.40;99.90
24412;DHT22;12544;46.760;15.942;2024-01-30T03:47:20;-2.30;99.90
24412;DHT22;12544;46.760;15.942;2024-01-30T03:49:46;-2.20;99.90
24412;DHT22;12544;46.760;15.942;2024-01-30T03:52:12;-2.10;99.90
24412;DHT22;12544;46.760;15.942;2024-01-30T03:54:38;-2.10;99.90
24412;DHT22;12544;46.760;15.942;2024-01-30T03:57:03;-2.10;99.90
24412;DHT22;12544;46.760;15.942;2024-01-30T03:59:29;-2.20;99.90
24412;DHT22;12544;46.760;15.942;2024-01-30T04:01:55;-2.20;99.90
24412;DHT22;12544;46.760;15.942;2024-01-30T04:04:20;-2.20;99.90
24412;DHT22;12544;46.760;15.942;2024-01-30T04:06:46;-2.20;99.90
24412;DHT22;12544;46.760;15.942;2024-01-30T04:09:13;-2.20;99.90
24412;DHT22;12544;46.760;15.942;2024-01-30T04:11:39;-2.30;99.90
24412;DHT22;12544;46.760;15.942;2024-01-30T04:14:05;-2.30;99.90
24412;DHT22;12544;46.760;15.942;2024-01-30T04:16:30;-2.30;99.90
24412;DHT22;12544;46.760;15.942;2024-01-30T04:18:56;-2.30;99.90
24412;DHT22;12544;46.760;15.942;2024-01-30T04:21:22;-2.30;99.90
24412;DHT22;12544;46.760;15.942;2024-01-30T04:23:48;-2.30;99.90
24412;DHT22;12544;46.760;15.942;2024-01-30T04:26:14;-2.30;99.90
24412;DHT22;12544;46.760;15.942;2024-01-30T04:28:46;-2.40;99.90
24412;DHT22;12544;46.760;15.942;2024-01-30T04:31:12;-2.50;99.90
24412;DHT22;12544;46.760;15.942;2024-01-30T04:33:37;-2.60;99.90
24412;DHT22;12544;46.760;15.942;2024-01-30T04:36:03;-2.80;99.90
24412;DHT22;12544;46.760;15.942;2024-01-30T04:38:31;-2.90;99.90
24412;DHT22;12544;46.760;15.942;2024-01-30T04:40:57;-3.00;99.90
24412;DHT22;12544;46.760;15.942;2024-01-30T04:43:22;-3.00;99.90
24412;DHT22;12544;46.760;15.942;2024-01-30T04:45:49;-3.00;99.90
24412;DHT22;12544;46.760;15.942;2024-01-30T04:48:14;-3.00;99.90
24412;DHT22;12544;46.760;15.942;2024-01-30T04:50:40;-3.00;99.90
24412;DHT22;12544;46.760;15.942;2024-01-30T04:53:06;-3.10;99.90
24412;DHT22;12544;46.760;15.942;2024-01-30T04:55:31;-3.10;99.90
24412;DHT22;12544;46.760;15.942;2024-01-30T04:57:57;-3.10;99.90
24412;DHT22;12544;46.760;15.942;2024-01-30T05:00:22;-3.10;99.90
24412;DHT22;12544;46.760;15.942;2024-01-30T05:02:48;-3.10;99.90
24412;DHT22;12544;46.760;15.942;2024-01-30T05:05:14;-3.10;99.90
24412;DHT22;12544;46.760;15.942;2024-01-30T05:07:41;-3.20;99.90
24412;DHT22;12544;46.760;15.942;2024-01-30T05:10:07;-3.20;99.90
24412;DHT22;12544;46.760;15.942;2024-01-30T05:12:33;-3.30;99.90
24412;DHT22;12544;46.760;15.942;2024-01-30T05:14:59;-3.30;99.90
24412;DHT22;12544;46.760;15.942;2024-01-30T05:17:25;-3.30;99.90
24412;DHT22;12544;46.760;15.942;2024-01-30T05:19:50;-3.40;99.90
24412;DHT22;12544;46.760;15.942;2024-01-30T05:22:16;-3.40;99.90
24412;DHT22;12544;46.760;15.942;2024-01-30T05:24:44;-3.40;99.90
24412;DHT22;12544;46.760;15.942;2024-01-30T05:27:10;-3.40;99.90
24412;DHT22;12544;46.760;15.942;2024-01-30T05:29:35;-3.40;99.90
24412;DHT22;12544;46.760;15.942;2024-01-30T05:32:01;-3.50;99.90
24412;DHT22;12544;46.760;15.942;2024-01-30T05:34:27;-3.70;99.90
24412;DHT22;12544;46.760;15.942;2024-01-30T05:36:53;-3.60;99.90
24412;DHT22;12544;46.760;15.942;2024-01-30T05:39:19;-3.60;99.90
24412;DHT22;12544;46.760;15.942;2024-01-30T05:41:45;-3.50;99.90
24412;DHT22;12544;46.760;15.942;2024-01-30T05:44:11;-3.50;99.90
24412;DHT22;12544;46.760;15.942;2024-01-30T05:46:36;-3.50;99.90
24412;DHT22;12544;46.760;15.942;2024-01-30T05:49:02;-3.60;99.90
24412;DHT22;12544;46.760;15.942;2024-01-30T05:51:27;-3.60;99.90
24412;DHT22;12544;46.760;15.942;2024-01-30T05:53:53;-3.60;99.90
24412;DHT22;12544;46.760;15.942;2024-01-30T05:56:19;-3.70;99.90
24412;DHT22;12544;46.760;15.942;2024-01-30T05:58:45;-3.80;99.90
24412;DHT22;12544;46.760;15.942;2024-01-30T06:01:10;-3.90;99.90
24412;DHT22;12544;46.760;15.942;2024-01-30T06:03:36;-4.00;99.90
24412;DHT22;12544;46.760;15.942;2024-01-30T06:06:02;-4.10;99.90
24412;DHT22;12544;46.760;15.942;2024-01-30T06:08:28;-4.20;99.90
24412;DHT22;12544;46.760;15.942;2024-01-30T06:10:53;-4.20;99.90
24412;DHT22;12544;46.760;15.942;2024-01-30T06:13:20;-4.10;99.90
24412;DHT22;12544;46.760;15.942;2024-01-30T06:15:45;-4.10;99.90
24412;DHT22;12544;46.760;15.942;2024-01-30T06:18:11;-4.00;99.90
24412;DHT22;12544;46.760;15.942;2024-01-30T06:20:37;-3.90;99.90
24412;DHT22;12544;46.760;15.942;2024-01-30T06:23:03;-3.90;99.90
24412;DHT22;12544;46.760;15.942;2024-01-30T06:25:28;-3.90;99.90
24412;DHT22;12544;46.760;15.942;2024-01-30T06:27:54;-3.90;99.90
24412;DHT22;12544;46.760;15.942;2024-01-30T06:30:19;-4.00;99.90
24412;DHT22;12544;46.760;15.942;2024-01-30T06:32:45;-4.00;99.90
24412;DHT22;12544;46.760;15.942;2024-01-30T06:35:11;-4.00;99.90
24412;DHT22;12544;46.760;15.942;2024-01-30T06:37:37;-4.00;99.90
24412;DHT22;12544;46.760;15.942;2024-01-30T06:40:02;-4.00;99.90
24412;DHT22;12544;46.760;15.942;2024-01-30T06:42:30;-4.00;99.90
24412;DHT22;12544;46.760;15.942;2024-01-30T06:44:56;-4.00;99.90
24412;DHT22;12544;46.760;15.942;2024-01-30T06:47:21;-3.90;99.90
24412;DHT22;12544;46.760;15.942;2024-01-30T06:49:47;-3.90;99.90
24412;DHT22;12544;46.760;15.942;2024-01-30T06:52:20;-3.80;99.90
24412;DHT22;12544;46.760;15.942;2024-01-30T06:54:46;-3.80;99.90
24412;DHT22;12544;46.760;15.942;2024-01-30T06:57:11;-3.80;99.90
24412;DHT22;12544;46.760;15.942;2024-01-30T06:59:39;-3.70;99.90
24412;DHT22;12544;46.760;15.942;2024-01-30T07:02:10;-3.70;99.90
24412;DHT22;12544;46.760;15.942;2024-01-30T07:04:36;-3.60;99.90
24412;DHT22;12544;46.760;15.942;2024-01-30T07:07:03;-3.60;99.90
24412;DHT22;12544;46.760;15.942;2024-01-30T07:09:30;-3.50;99.90
24412;DHT22;12544;46.760;15.942;2024-01-30T07:11:56;-3.40;99.90
24412;DHT22;12544;46.760;15.942;2024-01-30T07:14:24;-3.40;99.90
24412;DHT22;12544;46.760;15.942;2024-01-30T07:16:49;-3.40;99.90
24412;DHT22;12544;46.760;15.942;2024-01-30T07:19:15;-3.40;99.90
24412;DHT22;12544;46.760;15.942;2024-01-30T07:21:41;-3.40;99.90
24412;DHT22;12544;46.760;15.942;2024-01-30T07:24:07;-3.30;99.90
24412;DHT22;12544;46.760;15.942;2024-01-30T07:26:33;-3.20;99.90
24412;DHT22;12544;46.760;15.942;2024-01-30T07:29:01;-3.10;99.90
24412;DHT22;12544;46.760;15.942;2024-01-30T07:31:26;-3.00;99.90
24412;DHT22;12544;46.760;15.942;2024-01-30T07:33:52;-3.00;99.90
24412;DHT22;12544;46.760;15.942;2024-01-30T07:36:18;-2.90;99.90
24412;DHT22;12544;46.760;15.942;2024-01-30T07:38:44;-2.80;99.90
24412;DHT22;12544;46.760;15.942;2024-01-30T07:41:09;-2.70;99.90
24412;DHT22;12544;46.760;15.942;2024-01-30T07:43:35;-2.70;99.90
24412;DHT22;12544;46.760;15.942;2024-01-30T07:46:01;-2.60;99.90
24412;DHT22;12544;46.760;15.942;2024-01-30T07:48:28;-2.50;99.90
24412;DHT22;12544;46.760;15.942;2024-01-30T07:50:53;-2.50;99.90
24412;DHT22;12544;46.760;15.942;2024-01-30T07:53:19;-2.50;99.90
24412;DHT22;12544;46.760;15.942;2024-01-30T07:55:48;-2.40;99.90
24412;DHT22;12544;46.760;15.942;2024-01-30T07:58:16;-2.50;99.90
24412;DHT22;12544;46.760;15.942;2024-01-30T08:00:41;-2.40;99.90
24412;DHT22;12544;46.760;15.942;2024-01-30T08:03:07;-2.40;99.90
24412;DHT22;12544;46.760;15.942;2024-01-30T08:05:32;-2.40;99.90
24412;DHT22;12544;46.760;15.942;2024-01-30T08:07:58;-2.40;99.90
24412;DHT22;12544;46.760;15.942;2024-01-30T08:10:24;-2.30;99.90
24412;DHT22;12544;46.760;15.942;2024-01-30T08:12:49;-2.20;99.90
24412;DHT22;12544;46.760;15.942;2024-01-30T08:15:15;-2.10;99.90
24412;DHT22;12544;46.760;15.942;2024-01-30T08:17:41;-1.90;99.90
24412;DHT22;12544;46.760;15.942;2024-01-30T08:20:07;-1.80;99.90
24412;DHT22;12544;46.760;15.942;2024-01-30T08:22:39;-1.70;99.90
24412;DHT22;12544;46.760;15.942;2024-01-30T08:25:06;-1.60;99.90
24412;DHT22;12544;46.760;15.942;2024-01-30T08:27:32;-1.60;99.90
24412;DHT22;12544;46.760;15.942;2024-01-30T08:29:57;-1.60;99.90
24412;DHT22;12544;46.760;15.942;2024-01-30T08:32:23;-1.60;99.90
24412;DHT22;12544;46.760;15.942;2024-01-30T08:34:49;-1.60;99.90
24412;DHT22;12544;46.760;15.942;2024-01-30T08:37:17;-1.50;99.90
24412;DHT22;12544;46.760;15.942;2024-01-30T08:39:43;-1.40;99.90
24412;DHT22;12544;46.760;15.942;2024-01-30T08:42:09;-1.30;99.90
24412;DHT22;12544;46.760;15.942;2024-01-30T08:44:35;-1.20;99.90
24412;DHT22;12544;46.760;15.942;2024-01-30T08:47:01;-1.20;99.90
24412;DHT22;12544;46.760;15.942;2024-01-30T08:49:26;-1.20;99.90
24412;DHT22;12544;46.760;15.942;2024-01-30T08:51:52;-1.10;99.90
24412;DHT22;12544;46.760;15.942;2024-01-30T08:54:18;-1.00;99.90
24412;DHT22;12544;46.760;15.942;2024-01-30T08:56:43;-1.00;99.90
24412;DHT22;12544;46.760;15.942;2024-01-30T08:59:09;-0.90;99.90
24412;DHT22;12544;46.760;15.942;2024-01-30T09:01:36;-0.90;99.90
24412;DHT22;12544;46.760;15.942;2024-01-30T09:04:01;-0.80;99.90
24412;DHT22;12544;46.760;15.942;2024-01-30T09:06:27;-0.80;99.90
24412;DHT22;12544;46.760;15.942;2024-01-30T09:08:54;-0.70;99.90
24412;DHT22;12544;46.760;15.942;2024-01-30T09:11:19;-0.60;99.90
24412;DHT22;12544;46.760;15.942;2024-01-30T09:13:45;-0.50;99.90
24412;DHT22;12544;46.760;15.942;2024-01-30T09:16:11;-0.40;99.90
24412;DHT22;12544;46.760;15.942;2024-01-30T09:18:36;-0.20;99.90
24412;DHT22;12544;46.760;15.942;2024-01-30T09:21:02;0.00;99.90
24412;DHT22;12544;46.760;15.942;2024-01-30T09:23:28;0.10;99.90
24412;DHT22;12544;46.760;15.942;2024-01-30T09:25:53;0.30;99.90
24412;DHT22;12544;46.760;15.942;2024-01-30T09:28:19;0.40;99.90
24412;DHT22;12544;46.760;15.942;2024-01-30T09:30:45;0.60;99.90
24412;DHT22;12544;46.760;15.942;2024-01-30T09:33:10;0.80;99.90
24412;DHT22;12544;46.760;15.942;2024-01-30T09:35:36;1.10;99.90
24412;DHT22;12544;46.760;15.942;2024-01-30T09:38:02;1.30;99.90
24412;DHT22;12544;46.760;15.942;2024-01-30T09:40:28;1.40;99.90
24412;DHT22;12544;46.760;15.942;2024-01-30T09:42:54;1.30;99.90
24412;DHT22;12544;46.760;15.942;2024-01-30T09:45:24;1.30;99.90
24412;DHT22;12544;46.760;15.942;2024-01-30T09:47:49;1.20;99.90
24412;DHT22;12544;46.760;15.942;2024-01-30T09:50:16;1.10;99.90
24412;DHT22;12544;46.760;15.942;2024-01-30T09:52:44;1.10;99.90
24412;DHT22;12544;46.760;15.942;2024-01-30T09:55:10;1.20;99.90
24412;DHT22;12544;46.760;15.942;2024-01-30T09:57:35;1.50;99.90
24412;DHT22;12544;46.760;15.942;2024-01-30T10:00:03;1.80;99.90
24412;DHT22;12544;46.760;15.942;2024-01-30T10:02:31;2.20;99.90
24412;DHT22;12544;46.760;15.942;2024-01-30T10:04:57;2.60;99.90
24412;DHT22;12544;46.760;15.942;2024-01-30T10:07:23;2.80;99.90
24412;DHT22;12544;46.760;15.942;2024-01-30T10:09:48;3.10;99.90
24412;DHT22;12544;46.760;15.942;2024-01-30T10:12:15;3.30;99.90
24412;DHT22;12544;46.760;15.942;2024-01-30T10:14:41;3.70;99.90
24412;DHT22;12544;46.760;15.942;2024-01-30T10:17:08;3.90;99.90
24412;DHT22;12544;46.760;15.942;2024-01-30T10:19:38;4.00;99.90
24412;DHT22;12544;46.760;15.942;2024-01-30T10:22:04;4.00;99.90
24412;DHT22;12544;46.760;15.942;2024-01-30T10:24:30;4.00;99.90
24412;DHT22;12544;46.760;15.942;2024-01-30T10:26:56;3.90;99.90
24412;DHT22;12544;46.760;15.942;2024-01-30T10:29:22;3.90;99.90
24412;DHT22;12544;46.760;15.942;2024-01-30T10:32:03;4.20;99.90
24412;DHT22;12544;46.760;15.942;2024-01-30T10:34:29;4.40;99.90
24412;DHT22;12544;46.760;15.942;2024-01-30T10:37:11;4.70;99.90
24412;DHT22;12544;46.760;15.942;2024-01-30T10:39:44;5.00;99.90
24412;DHT22;12544;46.760;15.942;2024-01-30T10:42:13;5.10;99.90
24412;DHT22;12544;46.760;15.942;2024-01-30T10:44:56;5.20;99.90
24412;DHT22;12544;46.760;15.942;2024-01-30T10:47:26;5.20;99.90
24412;DHT22;12544;46.760;15.942;2024-01-30T10:49:54;5.20;99.90
24412;DHT22;12544;46.760;15.942;2024-01-30T10:52:20;5.50;99.90
24412;DHT22;12544;46.760;15.942;2024-01-30T10:54:46;5.70;99.90
24412;DHT22;12544;46.760;15.942;2024-01-30T10:57:13;6.10;99.90
24412;DHT22;12544;46.760;15.942;2024-01-30T10:59:41;6.40;99.90
24412;DHT22;12544;46.760;15.942;2024-01-30T11:02:07;6.70;99.90
24412;DHT22;12544;46.760;15.942;2024-01-30T11:04:57;7.00;99.90
24412;DHT22;12544;46.760;15.942;2024-01-30T11:07:28;7.20;99.90
24412;DHT22;12544;46.760;15.942;2024-01-30T11:12:24;7.50;99.90
24412;DHT22;12544;46.760;15.942;2024-01-30T11:20:15;7.80;99.90
24412;DHT22;12544;46.760;15.942;2024-01-30T11:23:01;7.90;99.90
24412;DHT22;12544;46.760;15.942;2024-01-30T11:25:32;8.00;99.90
24412;DHT22;12544;46.760;15.942;2024-01-30T11:27:58;8.00;99.90
24412;DHT22;12544;46.760;15.942;2024-01-30T11:30:27;8.10;99.90
24412;DHT22;12544;46.760;15.942;2024-01-30T11:35:41;8.20;99.90
24412;DHT22;12544;46.760;15.942;2024-01-30T11:38:10;8.20;99.90
24412;DHT22;12544;46.760;15.942;2024-01-30T11:40:37;8.30;99.90
24412;DHT22;12544;46.760;15.942;2024-01-30T11:43:05;8.10;99.90
24412;DHT22;12544;46.760;15.942;2024-01-30T11:45:31;8.30;99.90
24412;DHT22;12544;46.760;15.942;2024-01-30T11:47:57;7.80;99.90
24412;DHT22;12544;46.760;15.942;2024-01-30T11:50:25;8.10;99.90
24412;DHT22;12544;46.760;15.942;2024-01-30T11:52:51;8.50;99.90
24412;DHT22;12544;46.760;15.942;2024-01-30T11:55:19;8.30;99.90
24412;DHT22;12544;46.760;15.942;2024-01-30T11:57:45;8.70;99.90
24412;DHT22;12544;46.760;15.942;2024-01-30T12:00:15;8.60;99.90
24412;DHT22;12544;46.760;15.942;2024-01-30T12:02:42;8.20;99.90
24412;DHT22;12544;46.760;15.942;2024-01-30T12:05:07;7.60;99.90
24412;DHT22;12544;46.760;15.942;2024-01-30T12:07:33;7.30;99.90
24412;DHT22;12544;46.760;15.942;2024-01-30T12:09:59;6.90;99.90
24412;DHT22;12544;46.760;15.942;2024-01-30T12:12:26;6.60;99.90
24412;DHT22;12544;46.760;15.942;2024-01-30T12:14:53;6.60;99.90
24412;DHT22;12544;46.760;15.942;2024-01-30T12:17:30;6.60;99.90
24412;DHT22;12544;46.760;15.942;2024-01-30T12:20:10;6.80;99.90
24412;DHT22;12544;46.760;15.942;2024-01-30T12:22:43;6.70;99.90
24412;DHT22;12544;46.760;15.942;2024-01-30T12:25:17;6.70;99.90
24412;DHT22;12544;46.760;15.942;2024-01-30T12:27:47;5.90;99.90
24412;DHT22;12544;46.760;15.942;2024-01-30T12:30:16;5.80;99.90
24412;DHT22;12544;46.760;15.942;2024-01-30T12:32:44;6.00;99.90
24412;DHT22;12544;46.760;15.942;2024-01-30T12:35:14;6.50;99.90
24412;DHT22;12544;46.760;15.942;2024-01-30T12:37:40;6.60;99.90
24412;DHT22;12544;46.760;15.942;2024-01-30T12:40:09;6.50;99.90
24412;DHT22;12544;46.760;15.942;2024-01-30T12:42:35;6.30;99.90
24412;DHT22;12544;46.760;15.942;2024-01-30T12:45:03;6.20;99.90
24412;DHT22;12544;46.760;15.942;2024-01-30T12:47:30;6.70;99.90
24412;DHT22;12544;46.760;15.942;2024-01-30T12:49:55;7.20;99.90
24412;DHT22;12544;46.760;15.942;2024-01-30T12:52:22;6.80;99.90
24412;DHT22;12544;46.760;15.942;2024-01-30T12:54:48;6.50;99.90
24412;DHT22;12544;46.760;15.942;2024-01-30T12:57:14;6.80;99.90
24412;DHT22;12544;46.760;15.942;2024-01-30T12:59:40;6.40;99.90
24412;DHT22;12544;46.760;15.942;2024-01-30T13:05:16;6.80;99.90
24412;DHT22;12544;46.760;15.942;2024-01-30T13:07:42;6.90;99.90
24412;DHT22;12544;46.760;15.942;2024-01-30T13:10:08;6.60;99.90
24412;DHT22;12544;46.760;15.942;2024-01-30T13:12:33;6.70;99.90
24412;DHT22;12544;46.760;15.942;2024-01-30T13:18:11;6.50;99.90
24412;DHT22;12544;46.760;15.942;2024-01-30T13:20:36;6.70;99.90
24412;DHT22;12544;46.760;15.942;2024-01-30T13:23:02;7.00;99.90
24412;DHT22;12544;46.760;15.942;2024-01-30T13:25:28;7.20;99.90
24412;DHT22;12544;46.760;15.942;2024-01-30T13:27:53;7.00;99.90
24412;DHT22;12544;46.760;15.942;2024-01-30T13:30:24;6.60;99.90
24412;DHT22;12544;46.760;15.942;2024-01-30T13:32:49;6.40;99.90
24412;DHT22;12544;46.760;15.942;2024-01-30T13:35:15;6.20;99.90
24412;DHT22;12544;46.760;15.942;2024-01-30T13:37:41;6.20;99.90
24412;DHT22;12544;46.760;15.942;2024-01-30T13:40:07;6.30;99.90
24412;DHT22;12544;46.760;15.942;2024-01-30T13:42:34;6.40;99.90
24412;DHT22;12544;46.760;15.942;2024-01-30T13:45:00;6.40;99.90
24412;DHT22;12544;46.760;15.942;2024-01-30T13:47:31;6.50;99.90
24412;DHT22;12544;46.760;15.942;2024-01-30T13:49:57;7.00;99.90
24412;DHT22;12544;46.760;15.942;2024-01-30T13:52:22;7.00;99.90
24412;DHT22;12544;46.760;15.942;2024-01-30T13:54:48;7.20;99.90
24412;DHT22;12544;46.760;15.942;2024-01-30T13:57:14;7.30;99.90
24412;DHT22;12544;46.760;15.942;2024-01-30T13:59:39;7.50;99.90
24412;DHT22;12544;46.760;15.942;2024-01-30T14:02:05;7.50;99.90
24412;DHT22;12544;46.760;15.942;2024-01-30T14:04:33;7.30;99.90
24412;DHT22;12544;46.760;15.942;2024-01-30T14:06:59;7.30;99.90
24412;DHT22;12544;46.760;15.942;2024-01-30T14:09:24;7.20;99.90
24412;DHT22;12544;46.760;15.942;2024-01-30T14:11:50;7.10;99.90
24412;DHT22;12544;46.760;15.942;2024-01-30T14:14:16;7.00;99.90
24412;DHT22;12544;46.760;15.942;2024-01-30T14:16:41;7.00;99.90
24412;DHT22;12544;46.760;15.942;2024-01-30T14:19:07;7.10;99.90
24412;DHT22;12544;46.760;15.942;2024-01-30T14:21:32;7.40;99.90
24412;DHT22;12544;46.760;15.942;2024-01-30T14:23:58;7.30;99.90
24412;DHT22;12544;46.760;15.942;2024-01-30T14:26:36;7.30;99.90
24412;DHT22;12544;46.760;15.942;2024-01-30T14:29:02;7.30;99.90
24412;DHT22;12544;46.760;15.942;2024-01-30T14:31:28;7.30;99.90
24412;DHT22;12544;46.760;15.942;2024-01-30T14:33:53;7.20;99.90
24412;DHT22;12544;46.760;15.942;2024-01-30T14:36:20;7.30;99.90
24412;DHT22;12544;46.760;15.942;2024-01-30T14:38:46;7.30;99.90
24412;DHT22;12544;46.760;15.942;2024-01-30T14:41:11;7.30;99.90
24412;DHT22;12544;46.760;15.942;2024-01-30T14:43:37;7.20;99.90
24412;DHT22;12544;46.760;15.942;2024-01-30T14:46:03;7.00;99.90
24412;DHT22;12544;46.760;15.942;2024-01-30T14:48:31;6.90;99.90
24412;DHT22;12544;46.760;15.942;2024-01-30T14:50:57;6.80;99.90
24412;DHT22;12544;46.760;15.942;2024-01-30T14:53:23;6.70;99.90
24412;DHT22;12544;46.760;15.942;2024-01-30T14:55:48;6.70;99.90
24412;DHT22;12544;46.760;15.942;2024-01-30T14:58:14;6.80;99.90
24412;DHT22;12544;46.760;15.942;2024-01-30T15:00:39;6.90;99.90
24412;DHT22;12544;46.760;15.942;2024-01-30T15:03:05;6.90;99.90
24412;DHT22;12544;46.760;15.942;2024-01-30T15:05:31;6.80;99.90
24412;DHT22;12544;46.760;15.942;2024-01-30T15:07:56;6.80;99.90
24412;DHT22;12544;46.760;15.942;2024-01-30T15:10:22;6.70;99.90
24412;DHT22;12544;46.760;15.942;2024-01-30T15:12:47;6.60;99.90
24412;DHT22;12544;46.760;15.942;2024-01-30T15:15:22;6.60;99.90
24412;DHT22;12544;46.760;15.942;2024-01-30T15:17:48;6.50;99.90
24412;DHT22;12544;46.760;15.942;2024-01-30T15:20:13;6.40;99.90
24412;DHT22;12544;46.760;15.942;2024-01-30T15:22:39;6.30;99.90
24412;DHT22;12544;46.760;15.942;2024-01-30T15:25:06;6.20;99.90
24412;DHT22;12544;46.760;15.942;2024-01-30T15:27:31;6.20;99.90
24412;DHT22;12544;46.760;15.942;2024-01-30T15:29:57;6.10;99.90
24412;DHT22;12544;46.760;15.942;2024-01-30T15:32:23;6.00;99.90
24412;DHT22;12544;46.760;15.942;2024-01-30T15:34:48;5.90;99.90